Overview Statistics Trail Chart Weather Telemetry Raw packets
 

This is the latest recevied packets stored in our database for station/object OE6HEF-8. If no packets are shown the sender has not sent any packets the latest 24 hours.

If you compare the raw packets with similar data from other websites it may differ (especially the path), the reason is that we are not collecting packets from the same APRS-IS servers. Each APRS-IS server performes duplicate filtering, and which packet that is considered to be a duplicate may differ depending on which APRS-IS server you receive your data from.

<< 1 2 3 4 >>

1788696548: OE6HEF-8>APLT00-1,WIDE1-1,qAR,OE6POD-14:=/6[MVR1Xn> P[ Take it Easy

1788696497: OE6HEF-8>APLT00-1,WIDE1-1,qAR,OE6POD-14:=/6[SpR1fJ> P[ Take it Easy

1788696473: OE6HEF-8>APLT00-1,WIDE1-1,qAR,OE6POD-14:=/6[G=R1iV> P[ Take it Easy

1788696374: OE6HEF-8>APLT00-1,WIDE1-1,qAR,OE6POD-14:=/6ZN0R1EV> P[ Take it Easy

1788696139: OE6HEF-8>APLT00-1,WIDE1-1,qAR,OE6POD-14:=/6YlrR1=!b P[ Take it Easy

1788694344: OE6HEF-8>APRSMC,TCPIP*,qAR,OE6KCH-12:T#233,934.5,32.5,16.7,1020.2,24.8,00000000

1788694344: OE6HEF-8>APRSMC,TCPIP*,qAR,OE6KCH-12:!4713.26N/01434.72EbTake it Easy#Just for Fun/A=002546

1788692527: OE6HEF-8>APLT00-1,WIDE1-1,qAR,OE6POD-14:=/6Yn.R1>9b P[ Take it Easy

1788692094: OE6HEF-8>APLT00-1,WIDE1-1,qAR,OE6POD-14:=/6ZfJR1RT> P[ Take it Easy

1788692079: OE6HEF-8>APLT00-1,WIDE1-1,qAR,OE6POD-14:=/6ZsGR1\k> P[ Take it Easy

1788692057: OE6HEF-8>APLT00-1,WIDE1-1,qAR,OE6POD-14:=/6[)VR1fp> P[ Take it Easy

1788692039: OE6HEF-8>APLT00-1,WIDE1-1,qAR,OE6POD-14:=/6[A#R1j4> P[ Take it Easy

1788691971: OE6HEF-8>APLT00-1,WIDE1-1,qAR,OE6POD-14:=/6[FrR1YL> P[ Take it Easy

1788691948: OE6HEF-8>APLT00-1,WIDE1-1,qAR,OE6POD-14:=/6[;VR1P&> P[ Take it Easy

1788691876: OE6HEF-8>APLT00-1,WIDE1-1,qAR,OE6POD-14:=/6[CRR1Mxb P[ Take it Easy

1788691804: OE6HEF-8>APLT00-1,WIDE1-1,qAR,OE6POD-14:=/6[F&R1N0b P[ Take it Easy

1788691712: OE6HEF-8>APRSMC,TCPIP*,qAR,OE6HEF-1:!4711.15N/01435.17EbTake it Easy#Just for Fun/A=002490

1788691712: OE6HEF-8>APRSMC,TCPIP*,qAR,OE6HEF-1:T#232,938.9,27.7,15.9,1026.4,15.8,00000000

1788688979: OE6HEF-8>APRSMC,TCPIP*,qAR,OE6KCH-12::OE6HEF-8 :UNIT.hPa,C deg,%,hPa,C deg,Y/N,O/N,O/N,O/N,O/N,O/N,O/N,O/N

1788688979: OE6HEF-8>APRSMC,TCPIP*,qAR,OE6KCH-12:!4711.15N/01435.17E[Take it Easy#Just for Fun/A=002546

1788688979: OE6HEF-8>APRSMC,TCPIP*,qAR,OE6KCH-12::OE6HEF-8 :PARM.Press,Temp.in,Hum,QNH,Temp.out,track,-,-,-,-,-,-,-

1788688979: OE6HEF-8>APRSMC,TCPIP*,qAR,OE6KCH-12:T#231,939.1,26.7,16.0,1027.0,14.4,00000000

1788688979: OE6HEF-8>APRSMC,TCPIP*,qAR,OE6KCH-12::OE6HEF-8 :EQNS.0,1,0,0,1,0,0,1,0,0,1,0,0,1,0

1788687600: OE6HEF-8>APRSMC,TCPIP*,qAR,OE6HEF-1:T#230,939.4,26.2,16.0,1027.4,13.8,00000000

1788687600: OE6HEF-8>APRSMC,TCPIP*,qAR,OE6HEF-1:!4711.15N/01435.16E[Take it Easy#Just for Fun/A=002493